Historyczne dane pomiarowe

Dodano dane terminowe – wersja testowa.

Dane z okresu 1951-2019

Wersja bazy: 1.34 [2019-03-16, lista zmian], aktualizacja planowana na 2019-04-15

Dane meteo z obszaru Polski uzyskane na podstawie danych udostępnionych przez Instytut Meteorologii i Gospodarki Wodnej – Państwowy Instytut Badawczy.

 

Wybierz Datę:    

       

TemperaturaWilgotnośćWiatrCiśnienieOpadyŚniegCzas trwania zjawisk
 Stacja t tx tn tng RH VA  wxwx mslp ppp RRR   cm mm wxwxwxwxwxwxwx
1999-08-14 10.2 14.2 6.6- 85.0- 4.3 3.0---- 0.0------------
1999-08-13 10.6 14.6 8.3- 89.8- 5.0 3.7---- 0.0------------
1999-08-12 10.8 16.1 8.2- 99.0- 7.3 0.7---- 0.0------------
1999-08-11 14.8 17.7 12.9- 94.3- 5.3 2.0---- 23.2------------
1999-08-10 17.9 22.7 14.9- 93.0- 6.0 3.0---- 11.4------------
1999-08-09 19.1 26.2 16.2- 87.0- 3.7 4.0---- 11.0------------
1999-08-08 17.4 24.1 10.2- 79.5- 3.3 3.3---- 0.0------------
1999-08-07 17.5 23.2 10.1- 81.8- 3.7 1.0---- 1.2------------
1999-08-06 17.0 21.9 13.4- 79.8- 5.3 5.3---- 0.0------------
1999-08-05 15.6 21.2 10.3- 66.3- 2.3 1.7---- 0.0------------
1999-08-04 13.9 18.4 10.3- 80.8- 2.3 2.3---- 0.0------------
1999-08-03 12.3 16.0 9.5- 79.8- 8.0 2.7---- 0.0------------
1999-08-02 12.7 15.6 10.7- 81.3- 7.3 2.0---- 1.1------------
1999-08-01 13.7 17.1 11.6- 77.3- 7.0 3.7---- 1.3------------
1999-07-31 13.7 18.1 10.4- 69.8- 5.0 3.3---- 0.0------------
1999-07-30 13.6 18.4 9.9- 74.0- 4.3 4.0---- 0.0------------
1999-07-29 12.7 16.1 10.0- 86.3- 4.3 4.0---- 0.0------------
1999-07-28 13.6 18.4 10.1- 87.8- 4.3 3.0---- 0.0------------
1999-07-27 14.8 18.0 13.1-100.0- 8.0 4.0---- 1.5------------
1999-07-26 16.4 21.2 12.9- 90.5- 7.7 3.3---- 0.0------------
1999-07-25 14.1 18.4 10.1- 89.8- 4.7 2.0---- 0.0------------
1999-07-24 11.3 14.8 7.9- 96.3- 7.3 2.0---- 0.0------------
1999-07-23 11.2 17.1 8.5-100.0- 8.0 5.3---- 15.0------------
1999-07-22 15.6 19.7 13.4- 88.3- 7.7 3.0---- 10.6------------
1999-07-21 18.7 24.4 15.4- 66.8- 5.7 5.3---- 0.0------------
1999-07-20 18.9 24.4 14.7- 51.3- 0.0 2.0---- 0.0------------
1999-07-19 16.9 21.4 13.1- 49.8- 3.7 3.0---- 0.0------------
1999-07-18 14.8 19.8 10.3- 57.0- 0.3 1.0---- 0.0------------
1999-07-17 13.4 18.0 10.1- 70.3- 3.0 2.0---- 0.0------------
1999-07-16 11.9 16.3 8.8- 77.5- 6.0 2.7---- 0.0------------
1999-07-15 11.7 15.9 9.8- 87.0- 5.7 5.0---- 0.0------------
1999-07-14 15.9 21.6 13.4- 88.0- 5.3 5.0---- 6.9------------
1999-07-13 17.4 20.9 15.3- 92.0- 5.3 3.3---- 0.8------------
1999-07-12 17.2 21.7 14.6- 90.5- 4.7 3.7---- 3.6------------
1999-07-11 14.4 15.6 13.4-100.0- 7.3 3.7---- 13.6------------
1999-07-10 14.3 16.1 12.9-100.0- 8.0 5.3---- 0.5------------
1999-07-09 14.6 16.5 12.7- 99.5- 8.0 5.3---- 2.6------------
1999-07-08 15.4 18.1 13.9- 99.0- 8.0 2.3---- 11.2------------
1999-07-07 18.4 23.2 15.4- 90.5- 5.3 2.3---- 22.9------------
1999-07-06 22.0 27.1 18.1- 74.5- 0.3 2.7---- 0.0------------
1999-07-05 20.9 26.4 17.1- 73.8- 0.0 2.7---- 0.0------------
1999-07-04 19.7 25.8 14.5- 67.8- 0.0 3.3---- 0.0------------
1999-07-03 15.7 20.0 11.7- 80.5- 3.3 2.0---- 0.0------------
1999-07-02 15.6 19.2 12.6- 84.3- 4.0 1.7---- 0.0------------
1999-07-01 16.4 21.0 13.7- 80.0- 6.7 3.0---- 1.5------------
1999-06-30 16.2 20.9 13.2- 76.5- 7.0 3.0---- 0.0------------
1999-06-29 14.5 19.8 11.2- 75.5- 4.7 3.7---- 0.0------------
1999-06-28 17.6 27.4 13.4- 70.0- 4.0 5.0---- 1.7------------
1999-06-27 16.7 22.8 11.3- 68.8- 0.3 3.3---- 0.0------------
1999-06-26 13.8 18.7 8.3- 65.8- 0.7 2.7---- 0.0------------
1999-06-25 8.7 12.7 4.3- 84.0- 2.3 2.7---- 0.0------------
1999-06-24 6.0 7.7 3.8- 98.3- 7.7 3.3---- 0.0------------
1999-06-23 4.3 5.7 3.1- 98.3- 8.0 8.3---- 6.0------------
1999-06-22 6.2 11.6 3.7-100.0- 8.0 10.7---- 22.7------------
1999-06-21 13.4 18.1 10.7- 93.5- 6.7 1.7---- 27.6------------
1999-06-20 13.2 16.8 10.6- 98.8- 7.7 1.3---- 1.9------------
1999-06-19 11.4 13.7 9.7- 99.3- 8.0 3.3---- 0.5------------
1999-06-18 12.9 15.3 11.8- 99.8- 8.0 2.0---- 8.3------------
1999-06-17 13.9 16.4 12.3- 98.3- 8.0 2.3---- 18.3------------
1999-06-16 13.2 15.0 11.6- 99.0- 8.0 1.7---- 3.5------------
4185.8 ms

 

Źródłem pochodzenia danych jest Instytut Meteorologii i Gospodarki Wodnej – Państwowy Instytut Badawczy. Dane Instytutu Meteorologii i Gospodarki Wodnej – Państwowego Instytutu Badawczego zostały przetworzone.

Dane źródłowe można odnaleźć na stronie https://dane.imgw.pl